Погода Сойалона 2 недели

Чьяпас, Мексика

25 февраля-08 марта
  • 25февраля
    Сегодня
    +12°
    +28°
    Ясно и безоблачно
    ВремяПогодаТемператураВлажностьДавлениеВетер, м/сВероятность осадков
    00:00Практически безоблачно+15°C87 %664 мм2.0 м/с8 %
    03:00Ясно и безоблачно+12°C70 %662 мм1.5 м/с6 %
    06:00Ясно и безоблачно+11°C66 %662 мм1.3 м/с11 %
    09:00Ясно и безоблачно+17°C47 %664 мм1.0 м/с5 %
    12:00Ясно и безоблачно+25°C33 %665 мм2.0 м/с2 %
    15:00Ясно и безоблачно+28°C40 %664 мм2.9 м/с2 %
    18:00Ясно и безоблачно+23°C60 %663 мм2.7 м/с2 %
    21:00Практически безоблачно+18°C81 %664 мм2.4 м/с2 %
  • 26февраля
    Понедельник
    +11°
    +30°
    Ясно и безоблачно
    ВремяПогодаТемператураВлажностьДавлениеВетер, м/сВероятность осадков
    00:00Ясно и безоблачно+16°C75 %663 мм1.7 м/с2 %
    03:00Ясно и безоблачно+13°C62 %661 мм1.0 м/с2 %
    06:00Ясно и безоблачно+12°C53 %660 мм1.0 м/с2 %
    09:00Ясно и безоблачно+20°C36 %664 мм0.6 м/с2 %
    12:00Ясно и безоблачно+27°C23 %665 мм1.2 м/с2 %
    15:00Ясно и безоблачно+29°C28 %663 мм2.3 м/с2 %
    18:00Ясно и безоблачно+24°C58 %663 мм2.6 м/с2 %
    21:00Ясно и безоблачно+20°C73 %662 мм2.2 м/с2 %
  • 27февраля
    Вторник
    +16°
    +31°
    Ясно и безоблачно
    ВремяПогодаТемператураВлажностьДавлениеВетер, м/сВероятность осадков
    00:00Ясно и безоблачно+16°C65 %661 мм1.4 м/с2 %
    03:00Ясно и безоблачно+13°C44 %658 мм0.9 м/с2 %
    06:00Ясно и безоблачно+12°C35 %658 мм1.0 м/с2 %
    09:00Ясно и безоблачно+21°C27 %662 мм1.5 м/с2 %
    12:00Ясно и безоблачно+27°C22 %663 мм2.7 м/с2 %
    15:00Ясно и безоблачно+30°C17 %661 мм2.3 м/с2 %
    18:00Ясно и безоблачно+26°C48 %661 мм1.9 м/с2 %
    21:00Ясно и безоблачно+21°C77 %662 мм0.4 м/с3 %
  • 28февраля
    Среда
    +16°
    +33°
    Ясно и безоблачно
    ВремяПогодаТемператураВлажностьДавлениеВетер, м/сВероятность осадков
    00:00Ясно и безоблачно+19°C77 %661 мм0.6 м/с3 %
    03:00Ясно и безоблачно+18°C71 %660 мм1.0 м/с2 %
    06:00Ясно и безоблачно+16°C70 %659 мм1.6 м/с2 %
    09:00Ясно и безоблачно+22°C42 %662 мм2.0 м/с2 %
    12:00Ясно и безоблачно+29°C28 %663 мм3.0 м/с2 %
    15:00Ясно и безоблачно+32°C23 %662 мм1.8 м/с2 %
    18:00Ясно и безоблачно+28°C35 %662 мм2.6 м/с2 %
    21:00Ясно и безоблачно+23°C56 %663 мм0.6 м/с2 %
Мы используем cookies
Соглашаюсь